createdAt,value
2018-07-22T00:00:14.321Z,26.58
2018-07-22T00:03:20.692Z,26.48
2018-07-22T00:06:30.678Z,26.62
2018-07-22T00:09:39.188Z,26.63
2018-07-22T00:12:49.285Z,26.56
2018-07-22T00:15:57.396Z,26.81
2018-07-22T00:19:06.645Z,26.85
2018-07-22T00:22:16.484Z,26.56
2018-07-22T00:25:25.460Z,26.79
2018-07-22T00:28:34.062Z,26.95
2018-07-22T00:31:44.193Z,27.16
2018-07-22T00:34:52.097Z,27.08
2018-07-22T00:37:59.453Z,26.79
2018-07-22T00:41:07.526Z,26.74
2018-07-22T00:44:15.932Z,26.75
2018-07-22T00:47:23.479Z,26.74
2018-07-22T00:50:32.119Z,26.81
2018-07-22T00:53:40.448Z,26.67
2018-07-22T00:56:48.681Z,26.47
2018-07-22T00:59:56.817Z,26.71
2018-07-22T01:03:07.050Z,26.44
2018-07-22T01:06:17.317Z,26.24
2018-07-22T01:09:26.550Z,26.14
2018-07-22T01:12:33.982Z,26.16
2018-07-22T01:15:44.225Z,26.15
2018-07-22T01:18:53.606Z,26.13
2018-07-22T01:22:01.921Z,26.30
2018-07-22T01:25:09.441Z,25.95
2018-07-22T01:28:21.346Z,26.50
2018-07-22T01:31:29.416Z,26.23
2018-07-22T01:34:38.646Z,26.29
2018-07-22T01:37:46.982Z,26.46
2018-07-22T01:40:54.683Z,26.53
2018-07-22T01:44:04.043Z,26.70
2018-07-22T01:47:12.177Z,26.70
2018-07-22T01:50:19.708Z,26.73
2018-07-22T01:53:28.806Z,26.66
2018-07-22T01:56:40.030Z,26.45
2018-07-22T01:59:49.354Z,26.42
2018-07-22T02:03:00.293Z,26.51
2018-07-22T02:06:11.862Z,26.04
2018-07-22T02:09:22.589Z,26.48
2018-07-22T02:12:38.816Z,26.44
2018-07-22T02:18:26.571Z,26.41
2018-07-22T02:21:39.071Z,26.41
2018-07-22T02:24:51.948Z,26.36
2018-07-22T02:28:02.193Z,26.33
2018-07-22T02:31:12.844Z,26.47
2018-07-22T02:34:20.704Z,26.44
2018-07-22T02:37:30.469Z,26.51
2018-07-22T02:40:38.183Z,26.61
2018-07-22T02:43:48.275Z,26.65
2018-07-22T02:47:00.231Z,26.63
2018-07-22T02:50:08.629Z,26.58
2018-07-22T02:53:16.811Z,26.53
2018-07-22T02:56:27.926Z,26.13
2018-07-22T02:59:35.891Z,26.28
2018-07-22T03:02:45.854Z,26.15
2018-07-22T03:05:54.971Z,25.97
2018-07-22T03:09:02.240Z,25.98
2018-07-22T03:12:11.585Z,25.94
2018-07-22T03:15:24.858Z,25.93
2018-07-22T03:18:53.761Z,25.87
2018-07-22T03:22:02.664Z,25.81
2018-07-22T03:25:11.344Z,25.95
2018-07-22T03:28:21.396Z,25.98
2018-07-22T03:31:29.531Z,25.90
2018-07-22T03:34:39.502Z,25.83
2018-07-22T03:37:47.455Z,25.71
2018-07-22T03:40:56.539Z,25.52
2018-07-22T03:44:04.537Z,25.27
2018-07-22T03:47:24.444Z,25.37
2018-07-22T03:50:33.597Z,25.44
2018-07-22T03:53:43.266Z,25.34
2018-07-22T03:56:51.696Z,25.36
2018-07-22T04:00:00.810Z,25.34
2018-07-22T04:03:10.016Z,25.40
2018-07-22T04:05:55.912Z,25.69
2018-07-22T04:08:33.250Z,25.86
2018-07-22T04:11:06.669Z,25.91
2018-07-22T04:13:36.993Z,25.83
2018-07-22T04:16:09.557Z,25.64
2018-07-22T04:18:51.812Z,25.66
2018-07-22T04:21:24.489Z,25.64
2018-07-22T04:23:57.393Z,25.74
2018-07-22T04:26:28.610Z,25.84
2018-07-22T04:28:59.673Z,25.87
2018-07-22T04:31:31.741Z,26.11
2018-07-22T04:34:02.425Z,26.39
2018-07-22T04:36:33.057Z,26.74
2018-07-22T04:39:05.158Z,27.18
2018-07-22T04:41:36.208Z,27.52
2018-07-22T04:44:08.901Z,27.77
2018-07-22T04:46:39.305Z,27.97
2018-07-22T04:49:10.440Z,27.96
2018-07-22T04:51:48.374Z,27.80
2018-07-22T04:54:21.427Z,27.48
2018-07-22T04:56:53.631Z,27.16
2018-07-22T04:59:23.936Z,26.93
2018-07-22T05:01:54.612Z,26.69
2018-07-22T05:04:32.064Z,26.61
2018-07-22T05:07:09.185Z,26.76
2018-07-22T05:09:42.213Z,26.83
2018-07-22T05:12:13.856Z,26.98
2018-07-22T05:14:44.849Z,27.14
2018-07-22T05:17:18.408Z,27.26
2018-07-22T05:19:55.334Z,27.48
2018-07-22T05:22:27.491Z,27.71
2018-07-22T05:25:00.356Z,27.91
2018-07-22T05:27:31.374Z,28.03
2018-07-22T05:30:07.351Z,28.01
2018-07-22T05:32:38.356Z,28.03
2018-07-22T05:35:10.804Z,28.07
2018-07-22T05:37:46.232Z,28.32
2018-07-22T05:40:17.070Z,28.34
2018-07-22T05:42:47.364Z,28.40
2018-07-22T05:45:18.803Z,28.39
2018-07-22T05:47:49.840Z,28.58
2018-07-22T05:50:20.470Z,28.70
2018-07-22T05:52:52.256Z,28.76
2018-07-22T05:55:23.416Z,28.75
2018-07-22T05:57:54.479Z,28.84
2018-07-22T06:00:25.310Z,28.98
2018-07-22T06:02:58.178Z,29.04
2018-07-22T06:05:29.303Z,28.98
2018-07-22T06:08:02.612Z,28.94
2018-07-22T06:10:34.650Z,28.98
2018-07-22T06:13:04.966Z,29.04
2018-07-22T06:15:35.541Z,29.13
2018-07-22T06:18:08.199Z,29.39
2018-07-22T06:20:40.885Z,29.61
2018-07-22T06:23:11.262Z,29.64
2018-07-22T06:25:41.542Z,29.68
2018-07-22T06:28:13.312Z,29.86
2018-07-22T06:30:47.307Z,30.07
2018-07-22T06:33:17.864Z,30.19
2018-07-22T06:35:50.462Z,30.28
2018-07-22T06:38:21.747Z,30.79
2018-07-22T06:40:51.977Z,30.92
2018-07-22T06:43:22.888Z,31.29
2018-07-22T06:45:53.388Z,31.51
2018-07-22T06:48:25.503Z,31.52
2018-07-22T06:50:55.889Z,31.68
2018-07-22T06:53:26.179Z,31.80
2018-07-22T06:55:56.768Z,31.92
2018-07-22T06:58:28.529Z,31.75
2018-07-22T07:00:59.564Z,31.88
2018-07-22T07:03:32.925Z,32.03
2018-07-22T07:06:03.667Z,32.26
2018-07-22T07:08:36.744Z,32.30
2018-07-22T07:11:07.997Z,32.03
2018-07-22T07:13:43.216Z,31.98
2018-07-22T07:16:13.459Z,32.05
2018-07-22T07:18:45.690Z,31.98
2018-07-22T07:21:16.512Z,31.95
2018-07-22T07:23:47.649Z,31.89
2018-07-22T07:26:18.411Z,32.04
2018-07-22T07:28:48.812Z,31.85
2018-07-22T07:31:26.286Z,31.99
2018-07-22T07:33:57.483Z,32.03
2018-07-22T07:36:28.371Z,32.49
2018-07-22T07:39:06.973Z,32.91
2018-07-22T07:41:38.845Z,32.99
2018-07-22T07:44:10.724Z,33.00
2018-07-22T07:46:41.749Z,33.07
2018-07-22T07:49:12.896Z,33.23
2018-07-22T07:51:44.356Z,33.38
2018-07-22T07:54:14.630Z,33.61
2018-07-22T07:56:44.940Z,33.59
2018-07-22T07:59:15.947Z,33.88
2018-07-22T08:01:46.265Z,34.24
2018-07-22T08:04:19.485Z,34.52
2018-07-22T08:06:52.253Z,34.45
2018-07-22T08:09:23.427Z,34.67
2018-07-22T08:11:53.775Z,34.69
2018-07-22T08:14:27.476Z,34.61
2018-07-22T08:16:57.854Z,34.62
2018-07-22T08:19:29.699Z,34.57
2018-07-22T08:22:02.705Z,34.74
2018-07-22T08:24:35.991Z,34.98
2018-07-22T08:27:06.477Z,35.01
2018-07-22T08:29:39.458Z,35.22
2018-07-22T08:32:12.606Z,35.62
2018-07-22T08:34:42.969Z,36.07
2018-07-22T08:37:17.397Z,36.39
2018-07-22T08:39:58.175Z,36.85
2018-07-22T08:42:35.423Z,37.47
2018-07-22T08:45:18.502Z,37.63
2018-07-22T08:47:50.705Z,39.17
2018-07-22T08:50:23.714Z,39.61
2018-07-22T08:52:54.185Z,39.46
2018-07-22T08:55:25.456Z,39.63
2018-07-22T08:57:59.053Z,39.78
2018-07-22T09:00:34.874Z,39.58
2018-07-22T09:03:06.612Z,38.86
2018-07-22T09:05:43.907Z,37.94
2018-07-22T09:08:14.255Z,37.58
2018-07-22T09:10:44.801Z,37.94
2018-07-22T09:13:16.487Z,37.90
2018-07-22T09:15:55.596Z,38.55
2018-07-22T09:18:27.294Z,38.48
2018-07-22T09:20:58.161Z,38.58
2018-07-22T09:23:29.573Z,39.05
2018-07-22T09:26:02.960Z,39.36
2018-07-22T09:28:37.476Z,39.78
2018-07-22T09:31:09.223Z,40.24
2018-07-22T09:33:42.845Z,40.55
2018-07-22T09:36:22.900Z,40.67
2018-07-22T09:38:57.065Z,40.75
2018-07-22T09:41:30.121Z,40.63
2018-07-22T09:44:01.590Z,40.52
2018-07-22T09:46:33.195Z,40.90
2018-07-22T09:49:03.733Z,41.01
2018-07-22T09:51:39.512Z,41.20
2018-07-22T09:54:11.626Z,40.85
2018-07-22T09:56:43.228Z,40.30
2018-07-22T09:59:14.824Z,39.69
2018-07-22T10:01:46.464Z,39.15
2018-07-22T10:04:17.040Z,39.43
2018-07-22T10:06:51.161Z,39.43
2018-07-22T10:09:21.724Z,39.86
2018-07-22T10:11:53.067Z,40.53
2018-07-22T10:14:23.371Z,40.91
2018-07-22T10:16:54.674Z,40.97
2018-07-22T10:19:24.924Z,40.72
2018-07-22T10:21:55.224Z,40.20
2018-07-22T10:24:26.299Z,40.43
2018-07-22T10:26:59.893Z,40.44
2018-07-22T10:29:33.004Z,41.05
2018-07-22T10:32:05.119Z,41.64
2018-07-22T10:34:35.351Z,41.70
2018-07-22T10:37:07.145Z,41.54
2018-07-22T10:39:38.523Z,41.84
2018-07-22T10:42:10.721Z,41.65
2018-07-22T10:44:42.589Z,41.48
2018-07-22T10:47:12.904Z,41.73
2018-07-22T10:49:43.911Z,41.90
2018-07-22T10:52:14.861Z,41.90
2018-07-22T10:54:51.043Z,42.00
2018-07-22T10:57:21.392Z,41.44
2018-07-22T10:59:51.632Z,41.66
2018-07-22T11:02:22.003Z,41.91
2018-07-22T11:04:55.661Z,41.98
2018-07-22T11:07:26.944Z,42.31
2018-07-22T11:09:58.993Z,42.34
2018-07-22T11:12:31.053Z,42.14
2018-07-22T11:15:06.508Z,41.66
2018-07-22T11:17:37.095Z,40.96
2018-07-22T11:20:08.017Z,40.78
2018-07-22T11:22:38.844Z,41.46
2018-07-22T11:25:10.743Z,42.23
2018-07-22T11:27:42.560Z,43.01
2018-07-22T11:30:15.571Z,43.32
2018-07-22T11:32:47.392Z,43.53
2018-07-22T11:35:20.687Z,43.15
2018-07-22T11:37:51.016Z,42.70
2018-07-22T11:40:22.470Z,42.15
2018-07-22T11:42:54.328Z,41.81
2018-07-22T11:45:24.621Z,41.80
2018-07-22T11:47:55.780Z,41.63
2018-07-22T11:50:26.270Z,41.46
2018-07-22T11:52:57.513Z,41.33
2018-07-22T11:55:27.885Z,41.10
2018-07-22T11:58:02.477Z,40.75
2018-07-22T12:00:32.781Z,39.97
2018-07-22T12:03:03.212Z,40.24
2018-07-22T12:05:34.299Z,40.31
2018-07-22T12:08:05.287Z,40.27
2018-07-22T12:10:35.983Z,40.32
2018-07-22T12:13:07.317Z,40.30
2018-07-22T12:15:38.448Z,40.00
2018-07-22T12:18:09.068Z,39.98
2018-07-22T12:20:39.479Z,40.41
2018-07-22T12:23:11.450Z,40.05
2018-07-22T12:25:43.263Z,39.38
2018-07-22T12:28:14.427Z,38.79
2018-07-22T12:30:49.279Z,37.38
2018-07-22T12:33:21.684Z,35.41
2018-07-22T12:35:53.910Z,34.45
2018-07-22T12:38:24.734Z,33.75
2018-07-22T12:40:57.140Z,33.42
2018-07-22T12:43:29.297Z,33.30
2018-07-22T12:46:01.347Z,33.36
2018-07-22T12:48:31.735Z,33.52
2018-07-22T12:51:04.375Z,33.75
2018-07-22T12:53:35.088Z,33.81
2018-07-22T12:56:06.802Z,33.87
2018-07-22T12:58:37.887Z,33.98
2018-07-22T13:01:09.215Z,34.06
2018-07-22T13:03:41.299Z,34.34
2018-07-22T13:06:12.821Z,34.41
2018-07-22T13:08:44.265Z,34.73
2018-07-22T13:11:17.203Z,34.89
2018-07-22T13:13:48.192Z,35.13
2018-07-22T13:16:19.543Z,36.07
2018-07-22T13:18:50.152Z,36.38
2018-07-22T13:21:22.633Z,36.66
2018-07-22T13:23:53.016Z,37.12
2018-07-22T13:26:23.341Z,37.46
2018-07-22T13:28:53.741Z,37.51
2018-07-22T13:31:25.756Z,37.89
2018-07-22T13:33:57.600Z,38.39
2018-07-22T13:36:29.139Z,38.35
2018-07-22T13:39:00.388Z,38.15
2018-07-22T13:41:33.198Z,37.86
2018-07-22T13:44:06.175Z,36.21
2018-07-22T13:46:40.753Z,33.57
2018-07-22T13:49:11.830Z,31.50
2018-07-22T13:51:43.479Z,30.20
2018-07-22T13:54:15.541Z,29.02
2018-07-22T13:56:53.167Z,28.37
2018-07-22T14:02:20.322Z,27.48
2018-07-22T14:04:56.730Z,27.25
2018-07-22T14:07:34.485Z,27.40
2018-07-22T14:10:12.219Z,27.62
2018-07-22T14:15:25.522Z,27.92
2018-07-22T14:17:59.473Z,28.20
2018-07-22T14:20:40.706Z,28.08
2018-07-22T14:23:16.425Z,28.21
2018-07-22T14:25:49.608Z,28.40
2018-07-22T14:55:11.333Z,29.82
2018-07-22T15:09:52.683Z,29.90
2018-07-22T15:12:32.113Z,30.53
2018-07-22T15:17:56.227Z,30.43
2018-07-22T15:20:27.591Z,30.31
2018-07-22T15:22:58.841Z,31.18
2018-07-22T15:25:31.951Z,31.51
2018-07-22T15:28:02.761Z,31.83
2018-07-22T15:30:37.444Z,32.09
2018-07-22T15:33:10.534Z,32.34
2018-07-22T15:35:44.630Z,32.55
2018-07-22T15:38:15.312Z,32.87
2018-07-22T15:40:46.660Z,32.99
2018-07-22T15:43:18.269Z,32.92
2018-07-22T15:45:56.002Z,32.66
2018-07-22T15:48:29.366Z,32.68
2018-07-22T15:50:59.874Z,32.67
2018-07-22T15:53:33.835Z,32.89
2018-07-22T15:56:11.704Z,33.08
2018-07-22T15:58:42.052Z,33.29
2018-07-22T16:01:13.186Z,33.54
2018-07-22T16:03:44.436Z,33.46
2018-07-22T16:06:15.694Z,33.67
2018-07-22T16:08:49.674Z,33.90
2018-07-22T16:11:21.471Z,33.84
2018-07-22T16:13:53.276Z,33.68
2018-07-22T16:16:27.745Z,33.58
2018-07-22T16:19:02.067Z,33.44
2018-07-22T16:21:32.432Z,33.28
2018-07-22T16:24:03.046Z,33.08
2018-07-22T16:26:37.801Z,32.96
2018-07-22T16:29:09.716Z,33.14
2018-07-22T16:31:40.029Z,33.28
2018-07-22T16:34:10.248Z,33.20
2018-07-22T16:36:40.466Z,33.25
2018-07-22T16:39:11.086Z,33.47
2018-07-22T16:41:42.860Z,33.53
2018-07-22T16:44:13.849Z,33.55
2018-07-22T16:46:44.023Z,33.41
2018-07-22T16:49:15.117Z,33.49
2018-07-22T16:51:46.359Z,33.63
2018-07-22T16:54:17.137Z,33.57
2018-07-22T16:56:47.525Z,33.43
2018-07-22T16:59:18.424Z,33.42
2018-07-22T17:01:49.588Z,33.17
2018-07-22T17:04:22.778Z,33.19
2018-07-22T17:06:53.099Z,33.33
2018-07-22T17:09:24.594Z,33.32
2018-07-22T17:11:55.067Z,33.28
2018-07-22T17:14:27.767Z,33.33
2018-07-22T17:16:59.063Z,33.41
2018-07-22T17:19:30.450Z,33.59
2018-07-22T17:22:01.213Z,33.65
2018-07-22T17:24:31.505Z,33.43
2018-07-22T17:27:03.762Z,33.40
2018-07-22T17:29:34.598Z,33.52
2018-07-22T17:32:08.662Z,33.43
2018-07-22T17:34:41.736Z,33.33
2018-07-22T17:37:11.988Z,33.28
2018-07-22T17:39:47.187Z,33.02
2018-07-22T17:42:18.531Z,32.94
2018-07-22T17:44:49.328Z,33.07
2018-07-22T17:47:19.498Z,33.43
2018-07-22T17:49:50.066Z,33.59
2018-07-22T17:52:21.843Z,33.69
2018-07-22T17:54:54.815Z,33.65
2018-07-22T17:57:25.579Z,33.68
2018-07-22T17:59:55.791Z,33.84
2018-07-22T18:02:29.089Z,33.85
2018-07-22T18:05:00.520Z,33.73
2018-07-22T18:07:31.144Z,33.69
2018-07-22T18:10:01.789Z,33.50
2018-07-22T18:12:32.219Z,33.21
2018-07-22T18:15:04.249Z,33.14
2018-07-22T18:17:38.628Z,33.23
2018-07-22T18:20:09.662Z,33.25
2018-07-22T18:22:43.468Z,33.10
2018-07-22T18:25:14.003Z,32.69
2018-07-22T18:27:45.681Z,32.61
2018-07-22T18:30:20.645Z,32.51
2018-07-22T18:32:51.398Z,32.57
2018-07-22T18:35:24.770Z,32.81
2018-07-22T18:37:55.605Z,32.99
2018-07-22T18:40:31.356Z,32.81
2018-07-22T18:43:07.315Z,32.69
2018-07-22T18:45:40.400Z,32.62
2018-07-22T18:48:14.875Z,32.58
2018-07-22T18:50:47.149Z,32.18
2018-07-22T18:53:21.307Z,32.10
2018-07-22T18:55:54.149Z,31.99
2018-07-22T18:58:30.165Z,31.92
2018-07-22T19:01:05.801Z,31.94
2018-07-22T19:03:39.076Z,31.95
2018-07-22T19:06:10.233Z,31.91
2018-07-22T19:08:41.690Z,31.72
2018-07-22T19:11:12.855Z,31.70
2018-07-22T19:13:49.043Z,31.88
2018-07-22T19:16:24.211Z,31.88
2018-07-22T19:18:55.815Z,31.82
2018-07-22T19:21:26.737Z,31.75
2018-07-22T19:23:59.755Z,31.81
2018-07-22T19:26:33.322Z,31.63
2018-07-22T19:29:10.218Z,31.81
2018-07-22T19:31:40.702Z,31.63
2018-07-22T19:34:16.857Z,31.30
2018-07-22T19:36:48.615Z,31.56
2018-07-22T19:39:31.457Z,31.65
2018-07-22T19:42:20.331Z,31.32
2018-07-22T19:48:06.745Z,30.78
2018-07-22T19:50:49.783Z,30.68
2018-07-22T19:53:23.822Z,30.74
2018-07-22T19:55:56.400Z,30.65
2018-07-22T19:58:29.077Z,30.89
2018-07-22T20:01:00.488Z,31.02
2018-07-22T20:03:34.776Z,31.03
2018-07-22T20:06:06.436Z,31.03
2018-07-22T20:08:41.403Z,30.96
2018-07-22T20:11:13.690Z,31.01
2018-07-22T20:13:44.606Z,30.92
2018-07-22T20:16:18.837Z,30.68
2018-07-22T20:18:49.706Z,30.56
2018-07-22T20:21:21.320Z,30.62
2018-07-22T20:23:52.131Z,30.85
2018-07-22T20:26:26.899Z,30.85
2018-07-22T20:28:58.572Z,30.74
2018-07-22T20:31:31.867Z,30.44
2018-07-22T20:34:05.147Z,30.52
2018-07-22T20:36:36.547Z,30.50
2018-07-22T20:39:11.092Z,30.52
2018-07-22T20:41:42.676Z,30.59
2018-07-22T20:44:13.302Z,30.55
2018-07-22T20:46:47.867Z,30.53
2018-07-22T20:49:26.674Z,30.58
2018-07-22T20:51:57.927Z,30.42
2018-07-22T20:54:33.981Z,30.40
2018-07-22T20:57:10.806Z,30.44
2018-07-22T20:59:43.251Z,30.50
2018-07-22T21:02:20.268Z,30.43
2018-07-22T21:04:52.522Z,30.37
2018-07-22T21:08:03.038Z,30.39
2018-07-22T21:10:39.889Z,30.53
2018-07-22T21:13:19.678Z,30.66
2018-07-22T21:15:58.421Z,30.52
2018-07-22T21:18:39.520Z,30.11
2018-07-22T21:21:13.195Z,30.04
2018-07-22T21:23:46.344Z,29.81
2018-07-22T21:26:18.061Z,29.77
2018-07-22T21:28:51.737Z,29.72
2018-07-22T21:31:22.438Z,29.65
2018-07-22T21:33:59.368Z,29.52
2018-07-22T21:36:37.357Z,29.49
2018-07-22T21:39:16.428Z,29.47
2018-07-22T21:41:51.110Z,29.37
2018-07-22T21:44:30.492Z,29.29
2018-07-22T21:47:06.915Z,29.16
2018-07-22T21:49:43.464Z,29.12
2018-07-22T21:52:23.603Z,28.33
2018-07-22T21:54:57.654Z,29.01
2018-07-22T21:57:28.425Z,29.00
2018-07-22T22:00:07.553Z,28.95
2018-07-22T22:02:38.830Z,28.86
2018-07-22T22:05:10.665Z,28.79
2018-07-22T22:07:41.777Z,28.75
2018-07-22T22:10:13.485Z,28.78
2018-07-22T22:12:47.406Z,28.88
2018-07-22T22:15:24.078Z,28.87
2018-07-22T22:18:00.560Z,28.76
2018-07-22T22:20:32.376Z,28.65
2018-07-22T22:23:18.038Z,28.57
2018-07-22T22:25:48.767Z,28.47
2018-07-22T22:28:19.595Z,28.43
2018-07-22T22:30:50.718Z,28.41
2018-07-22T22:33:25.220Z,28.38
2018-07-22T22:35:57.856Z,28.31
2018-07-22T22:38:29.503Z,28.05
2018-07-22T22:41:01.431Z,27.89
2018-07-22T22:43:34.124Z,27.76
2018-07-22T22:46:09.287Z,27.79
2018-07-22T22:48:41.515Z,27.83
2018-07-22T22:51:22.606Z,27.77
2018-07-22T22:53:54.723Z,27.59
2018-07-22T22:56:30.103Z,27.42
2018-07-22T22:59:14.332Z,27.24
2018-07-22T23:01:50.552Z,27.36
2018-07-22T23:04:21.443Z,27.14
2018-07-22T23:06:55.522Z,26.90
2018-07-22T23:09:30.340Z,27.03
2018-07-22T23:12:16.033Z,27.08
2018-07-22T23:14:54.615Z,26.38
2018-07-22T23:17:29.616Z,27.22
2018-07-22T23:20:02.801Z,27.24
2018-07-22T23:22:33.880Z,27.08
2018-07-22T23:25:04.397Z,27.01
2018-07-22T23:27:44.593Z,27.08
2018-07-22T23:30:19.236Z,26.98
2018-07-22T23:32:52.325Z,26.98
2018-07-22T23:35:23.620Z,27.00
2018-07-22T23:37:57.056Z,27.02
2018-07-22T23:40:28.800Z,26.88
2018-07-22T23:42:59.635Z,26.93
2018-07-22T23:45:33.506Z,26.97
2018-07-22T23:48:07.555Z,26.96
2018-07-22T23:50:39.412Z,27.10
2018-07-22T23:53:11.124Z,27.05
2018-07-22T23:55:43.426Z,26.97
2018-07-22T23:58:14.721Z,27.10
